Time;durP1;ratioP1;P1;durP2;ratioP2;P2;SDS_P1;SDS_P2;PMS_P1;PMS_P2;Temp;Humidity;BMP_temperature;BMP_pressure;BME280_temperature;BME280_humidity;BME280_pressure;Samples;Min_cycle;Max_cycle;Signal;HPM_P1;HPM_P2
2022/09/16 00:01:31;;;;;;;;;;;;;;;20.70;68.35;94813.56;5115438;28;1170;-59
2022/09/16 00:03:57;;;;;;;;;;;;;;;20.85;67.73;94820.22;5115584;27;1910;-59
2022/09/16 00:06:25;;;;;;;;;;;;;;;20.78;68.20;94805.91;5115202;28;1030;-59
2022/09/16 00:08:53;;;;;;;;;;;;;;;20.79;68.23;94817.59;5115760;28;980;-59
2022/09/16 00:11:19;;;;;;;;;;;;;;;20.88;68.02;94818.09;5115036;28;1130;-59
2022/09/16 00:13:46;;;;;;;;;;;;;;;20.73;68.96;94821.25;5115483;28;1031;-59
2022/09/16 00:16:15;;;;;;;;;;;;;;;20.86;67.97;94826.50;5115660;28;1207;-59
2022/09/16 00:18:41;;;;;;;;;;;;;;;20.64;69.17;94828.91;5115288;28;1099;-59
2022/09/16 00:21:08;;;;;;;;;;;;;;;20.53;70.62;94838.66;5115067;28;1028;-59
2022/09/16 00:23:35;;;;;;;;;;;;;;;20.42;70.15;94826.69;5115111;28;2024;-59
2022/09/16 00:26:01;;;;;;;;;;;;;;;20.58;69.14;94829.81;5114983;27;1201;-59
2022/09/16 00:28:27;;;;;;;;;;;;;;;20.67;68.33;94814.88;5115242;28;1031;-59
2022/09/16 00:30:53;;;;;;;;;;;;;;;20.55;69.12;94824.84;5113688;28;1032;-59
2022/09/16 00:33:19;;;;;;;;;;;;;;;20.76;68.53;94810.75;5114958;28;1023;-59
2022/09/16 00:35:46;;;;;;;;;;;;;;;20.85;68.18;94801.22;5113491;28;1040;-59
2022/09/16 00:38:12;;;;;;;;;;;;;;;20.80;68.19;94797.53;5114911;28;1020;-59
2022/09/16 00:40:45;;;;;;;;;;;;;;;20.83;68.74;94803.34;5114875;28;1032;-59
2022/09/16 00:43:13;;;;;;;;;;;;;;;20.71;68.83;94804.38;5114961;28;1075;-59
2022/09/16 00:45:40;;;;;;;;;;;;;;;20.70;68.27;94798.13;5114654;28;1906;-59
2022/09/16 00:48:08;;;;;;;;;;;;;;;20.64;69.00;94802.59;5114731;28;1028;-59
2022/09/16 00:50:40;;;;;;;;;;;;;;;20.63;69.36;94813.69;5114669;28;992;-59
2022/09/16 00:53:09;;;;;;;;;;;;;;;20.58;69.66;94808.94;5114822;28;960;-59
2022/09/16 00:55:36;;;;;;;;;;;;;;;20.51;69.71;94818.19;5114384;28;1156;-59
2022/09/16 00:58:25;;;;;;;;;;;;;;;20.56;70.06;94831.91;5114687;28;1050;-59
2022/09/16 01:00:52;;;;;;;;;;;;;;;20.64;69.43;94829.75;5106177;28;1270;-59
2022/09/16 01:03:18;;;;;;;;;;;;;;;20.56;69.83;94824.59;5114233;28;1914;-59
2022/09/16 01:05:45;;;;;;;;;;;;;;;20.61;69.65;94823.94;5114457;28;1020;-59
2022/09/16 01:08:11;;;;;;;;;;;;;;;20.61;69.34;94810.38;5113060;28;1008;-59
2022/09/16 01:10:39;;;;;;;;;;;;;;;20.67;68.81;94814.88;5113987;28;1095;-59
2022/09/16 01:13:07;;;;;;;;;;;;;;;20.75;68.64;94811.00;5114299;28;972;-59
2022/09/16 01:15:42;;;;;;;;;;;;;;;20.49;70.06;94802.16;5113086;28;1053;-59
2022/09/16 01:18:18;;;;;;;;;;;;;;;20.36;70.97;94802.34;5114247;28;1130;-59
2022/09/16 01:21:02;;;;;;;;;;;;;;;20.46;70.35;94808.03;5114010;28;1257;-59
2022/09/16 01:23:28;;;;;;;;;;;;;;;20.63;69.28;94805.53;5114082;28;1938;-59
2022/09/16 01:26:01;;;;;;;;;;;;;;;20.58;69.13;94808.94;5113833;28;1041;-59
2022/09/16 01:28:46;;;;;;;;;;;;;;;20.72;69.09;94819.63;5114021;28;1047;-59
2022/09/16 01:31:20;;;;;;;;;;;;;;;20.57;69.94;94834.41;5114059;28;924;-59
2022/09/16 01:33:57;;;;;;;;;;;;;;;20.54;69.68;94843.00;5114239;28;1018;-59
2022/09/16 01:36:42;;;;;;;;;;;;;;;20.35;70.71;94850.38;5113806;28;1043;-59
2022/09/16 01:39:11;;;;;;;;;;;;;;;20.40;70.70;94849.69;5113912;28;1020;-59
2022/09/16 01:41:43;;;;;;;;;;;;;;;20.57;70.17;94842.56;5113831;28;1031;-58
2022/09/16 01:44:16;;;;;;;;;;;;;;;20.62;69.55;94839.16;5113879;28;1909;-58
2022/09/16 01:46:47;;;;;;;;;;;;;;;20.66;69.42;94837.69;5113684;28;1003;-59
2022/09/16 01:49:16;;;;;;;;;;;;;;;20.63;69.65;94832.69;5114054;28;1057;-59
2022/09/16 01:51:52;;;;;;;;;;;;;;;20.45;70.27;94822.66;5113843;28;976;-59
2022/09/16 01:54:26;;;;;;;;;;;;;;;20.52;69.98;94814.44;5113639;28;1216;-59
2022/09/16 01:56:57;;;;;;;;;;;;;;;20.68;68.99;94802.97;5113606;28;1111;-59
2022/09/16 01:59:31;;;;;;;;;;;;;;;20.48;69.74;94798.59;5112457;28;1170;-59
2022/09/16 02:02:10;;;;;;;;;;;;;;;20.02;71.21;94796.53;5113860;28;1131;-59
2022/09/16 02:04:39;;;;;;;;;;;;;;;20.00;71.98;94790.53;5113500;28;1991;-59
2022/09/16 02:07:08;;;;;;;;;;;;;;;20.32;70.52;94793.00;5113485;28;1106;-59
2022/09/16 02:09:37;;;;;;;;;;;;;;;20.47;69.74;94788.81;5113383;28;1267;-59
2022/09/16 02:12:07;;;;;;;;;;;;;;;20.22;69.77;94788.97;5113671;28;980;-59
2022/09/16 02:14:38;;;;;;;;;;;;;;;20.08;71.06;94782.88;5113525;28;1036;-59
2022/09/16 02:17:06;;;;;;;;;;;;;;;20.34;70.18;94766.47;5113621;28;1067;-59
2022/09/16 02:19:36;;;;;;;;;;;;;;;20.41;69.62;94767.19;5113585;28;972;-59
2022/09/16 02:22:04;;;;;;;;;;;;;;;20.47;68.94;94772.53;5117077;28;1043;-59
2022/09/16 02:24:31;;;;;;;;;;;;;;;20.42;69.52;94766.13;5117331;28;1913;-58
2022/09/16 02:26:59;;;;;;;;;;;;;;;20.29;69.66;94765.25;5117543;28;961;-59
2022/09/16 02:29:27;;;;;;;;;;;;;;;20.33;70.40;94776.47;5117520;28;1125;-59
2022/09/16 02:31:57;;;;;;;;;;;;;;;20.52;69.47;94787.28;5117218;28;1036;-59
2022/09/16 02:34:26;;;;;;;;;;;;;;;20.38;69.90;94789.38;5117475;28;1024;-59
2022/09/16 02:36:55;;;;;;;;;;;;;;;20.34;70.00;94789.00;5117130;28;916;-59
2022/09/16 02:39:29;;;;;;;;;;;;;;;20.21;70.98;94792.72;5117442;28;1035;-59
2022/09/16 02:41:56;;;;;;;;;;;;;;;20.21;71.15;94798.16;5117091;28;1028;-58
2022/09/16 02:44:22;;;;;;;;;;;;;;;20.18;70.84;94803.22;5117121;28;1917;-59
2022/09/16 02:47:02;;;;;;;;;;;;;;;20.25;70.89;94798.53;5116965;28;1083;-59
2022/09/16 02:49:31;;;;;;;;;;;;;;;20.33;70.93;94795.47;5116938;28;1110;-59
2022/09/16 02:52:03;;;;;;;;;;;;;;;20.23;71.07;94808.78;5117046;28;1088;-59
2022/09/16 02:54:32;;;;;;;;;;;;;;;20.01;72.01;94806.53;5116996;28;1149;-59
2022/09/16 02:56:58;;;;;;;;;;;;;;;19.88;72.98;94796.72;5116696;28;1028;-59
2022/09/16 02:59:24;;;;;;;;;;;;;;;19.92;72.67;94801.66;5115668;28;1012;-59
2022/09/16 03:01:50;;;;;;;;;;;;;;;19.87;72.48;94799.66;5116719;28;1083;-59
2022/09/16 03:04:18;;;;;;;;;;;;;;;19.74;73.24;94806.06;5115251;28;2004;-59
2022/09/16 03:06:45;;;;;;;;;;;;;;;19.86;72.40;94808.84;5116931;28;1067;-59
2022/09/16 03:09:12;;;;;;;;;;;;;;;20.08;72.12;94803.75;5116609;28;1246;-59
2022/09/16 03:11:53;;;;;;;;;;;;;;;20.02;71.99;94805.50;5116730;27;987;-59
2022/09/16 03:14:31;;;;;;;;;;;;;;;20.02;72.22;94812.81;5116441;28;1032;-58
2022/09/16 03:17:03;;;;;;;;;;;;;;;19.87;72.80;94807.78;5116753;28;959;-59
2022/09/16 03:19:42;;;;;;;;;;;;;;;19.85;72.25;94810.72;5116468;28;1023;-59
2022/09/16 03:22:18;;;;;;;;;;;;;;;19.81;73.08;94806.00;5116616;28;1101;-59
2022/09/16 03:25:02;;;;;;;;;;;;;;;19.83;72.57;94801.16;5116862;28;1992;-59
2022/09/16 03:27:34;;;;;;;;;;;;;;;19.63;73.65;94806.78;5116361;28;936;-59
2022/09/16 03:30:05;;;;;;;;;;;;;;;19.72;73.53;94805.47;5116307;27;1092;-59
2022/09/16 03:32:33;;;;;;;;;;;;;;;19.72;73.13;94804.59;5114847;28;1087;-59
2022/09/16 03:35:03;;;;;;;;;;;;;;;19.78;72.47;94801.00;5116200;28;1091;-58
2022/09/16 03:37:33;;;;;;;;;;;;;;;19.93;72.07;94793.31;5115974;28;964;-58
2022/09/16 03:40:02;;;;;;;;;;;;;;;20.05;70.90;94796.91;5116089;28;1048;-58
2022/09/16 03:42:28;;;;;;;;;;;;;;;20.15;70.38;94787.41;5116119;28;991;-58
2022/09/16 03:44:54;;;;;;;;;;;;;;;19.94;71.15;94794.97;5115964;28;2004;-58
2022/09/16 03:47:20;;;;;;;;;;;;;;;19.88;71.96;94793.16;5115961;28;1027;-58
2022/09/16 03:49:47;;;;;;;;;;;;;;;19.83;72.21;94804.69;5115849;28;1031;-59
2022/09/16 03:52:13;;;;;;;;;;;;;;;19.77;72.60;94799.34;5115814;28;1076;-58
2022/09/16 03:54:39;;;;;;;;;;;;;;;19.80;71.88;94807.84;5115706;28;1209;-59
2022/09/16 03:57:05;;;;;;;;;;;;;;;19.93;71.17;94796.03;5115952;28;953;-58
2022/09/16 03:59:31;;;;;;;;;;;;;;;19.79;71.65;94789.94;5115411;28;1052;-59
2022/09/16 04:01:57;;;;;;;;;;;;;;;19.67;72.32;94780.84;5115803;28;1051;-59
2022/09/16 04:04:24;;;;;;;;;;;;;;;19.53;73.27;94792.94;5115396;28;1993;-59
2022/09/16 04:06:50;;;;;;;;;;;;;;;19.39;73.32;94789.50;5115453;28;1024;-59
2022/09/16 04:09:16;;;;;;;;;;;;;;;19.16;74.34;94784.75;5115163;28;1135;-59
2022/09/16 04:11:42;;;;;;;;;;;;;;;19.38;72.88;94790.56;5115758;27;983;-59
2022/09/16 04:14:08;;;;;;;;;;;;;;;19.65;71.52;94783.81;5115261;28;1048;-58
2022/09/16 04:16:34;;;;;;;;;;;;;;;19.72;71.25;94793.75;5115326;28;1056;-59
2022/09/16 04:19:00;;;;;;;;;;;;;;;19.78;71.30;94782.84;5115211;28;1051;-59
2022/09/16 04:21:26;;;;;;;;;;;;;;;19.46;73.24;94791.13;5115139;28;972;-59
2022/09/16 04:23:53;;;;;;;;;;;;;;;19.40;73.39;94802.03;5114046;28;1913;-59
2022/09/16 04:26:19;;;;;;;;;;;;;;;19.39;73.23;94792.22;5115290;28;969;-59
2022/09/16 04:28:46;;;;;;;;;;;;;;;19.50;72.68;94802.31;5115109;28;1058;-60
2022/09/16 04:31:14;;;;;;;;;;;;;;;19.44;72.61;94786.97;5113969;28;964;-59
2022/09/16 04:33:40;;;;;;;;;;;;;;;19.19;73.39;94785.13;5114925;28;968;-59
2022/09/16 04:36:08;;;;;;;;;;;;;;;19.51;72.78;94799.38;5115389;28;1095;-59
2022/09/16 04:38:35;;;;;;;;;;;;;;;19.60;72.00;94794.50;5115004;28;976;-59
2022/09/16 04:41:02;;;;;;;;;;;;;;;19.60;72.47;94790.97;5113828;28;976;-59
2022/09/16 04:43:28;;;;;;;;;;;;;;;19.32;72.76;94800.44;5114327;28;1910;-60
2022/09/16 04:45:54;;;;;;;;;;;;;;;19.29;73.63;94799.00;5114679;28;1119;-59
2022/09/16 04:48:20;;;;;;;;;;;;;;;19.26;73.88;94796.75;5115112;28;1003;-59
2022/09/16 04:50:46;;;;;;;;;;;;;;;19.46;72.83;94801.97;5114488;28;1050;-59
2022/09/16 04:53:13;;;;;;;;;;;;;;;19.61;72.21;94793.44;5114634;28;1111;-59
2022/09/16 04:55:39;;;;;;;;;;;;;;;19.72;71.75;94789.19;5114471;28;1173;-59
2022/09/16 04:58:05;;;;;;;;;;;;;;;19.64;72.85;94798.41;5113454;28;968;-59
2022/09/16 05:00:31;;;;;;;;;;;;;;;19.51;73.03;94793.16;5114320;28;968;-59
2022/09/16 05:02:57;;;;;;;;;;;;;;;19.63;72.77;94783.19;5114527;28;996;-60
2022/09/16 05:05:23;;;;;;;;;;;;;;;19.78;72.31;94788.25;5114070;28;1976;-60
2022/09/16 05:07:49;;;;;;;;;;;;;;;19.89;72.04;94778.53;5113362;28;1032;-60
2022/09/16 05:10:15;;;;;;;;;;;;;;;19.99;72.12;94786.97;5113955;28;1061;-59
2022/09/16 05:12:41;;;;;;;;;;;;;;;20.04;72.22;94791.72;5114431;28;1048;-59
2022/09/16 05:15:08;;;;;;;;;;;;;;;20.18;72.02;94795.91;5114086;28;1040;-59
2022/09/16 05:17:34;;;;;;;;;;;;;;;20.15;72.57;94790.13;5114228;28;991;-59
2022/09/16 05:20:00;;;;;;;;;;;;;;;20.08;72.79;94788.31;5113987;28;979;-59
2022/09/16 05:22:26;;;;;;;;;;;;;;;20.22;73.39;94778.13;5114328;28;1006;-59
2022/09/16 05:24:52;;;;;;;;;;;;;;;20.36;72.32;94773.31;5114056;28;1897;-59
2022/09/16 05:27:18;;;;;;;;;;;;;;;20.53;71.82;94778.09;5114008;28;1040;-59
2022/09/16 05:29:44;;;;;;;;;;;;;;;20.65;71.42;94784.41;5114012;28;969;-59
2022/09/16 05:32:10;;;;;;;;;;;;;;;20.83;71.21;94778.88;5114094;28;972;-58
2022/09/16 05:34:36;;;;;;;;;;;;;;;20.97;70.52;94767.78;5113637;28;1182;-57
2022/09/16 05:37:02;;;;;;;;;;;;;;;21.02;70.12;94766.03;5114213;28;1032;-60
2022/09/16 05:39:28;;;;;;;;;;;;;;;21.14;70.38;94760.59;5113785;28;1095;-59
2022/09/16 05:41:58;;;;;;;;;;;;;;;21.25;69.97;94778.78;5113926;28;1082;-61
2022/09/16 05:44:25;;;;;;;;;;;;;;;21.23;72.07;94774.66;5113857;28;1910;-60
2022/09/16 05:46:51;;;;;;;;;;;;;;;21.25;72.23;94792.38;5113658;28;1064;-59
2022/09/16 05:49:19;;;;;;;;;;;;;;;21.28;72.86;94787.53;5113665;28;1857;-59
2022/09/16 05:51:46;;;;;;;;;;;;;;;21.26;72.85;94779.59;5113893;28;1011;-59
2022/09/16 05:54:12;;;;;;;;;;;;;;;21.46;72.08;94784.72;5112729;28;1126;-59
2022/09/16 05:56:38;;;;;;;;;;;;;;;21.58;71.09;94788.25;5116886;28;1015;-58
2022/09/16 05:59:04;;;;;;;;;;;;;;;21.70;69.89;94795.56;5118569;28;976;-59
2022/09/16 06:01:32;;;;;;;;;;;;;;;21.81;69.48;94794.72;5117695;27;1087;-59
2022/09/16 06:04:00;;;;;;;;;;;;;;;21.81;69.71;94787.38;5117858;28;1910;-59
2022/09/16 06:06:46;;;;;;;;;;;;;;;21.95;68.94;94798.84;5117679;28;1114;-59
2022/09/16 06:09:13;;;;;;;;;;;;;;;22.10;69.49;94800.19;5116624;28;1112;-59
2022/09/16 06:11:41;;;;;;;;;;;;;;;22.10;69.17;94801.03;5117806;28;1028;-59
2022/09/16 06:14:07;;;;;;;;;;;;;;;22.23;67.67;94805.34;5117869;28;1023;-59
2022/09/16 06:16:33;;;;;;;;;;;;;;;22.38;67.02;94804.88;5117437;28;1052;-57
2022/09/16 06:19:00;;;;;;;;;;;;;;;22.54;65.75;94797.81;5117883;28;1020;-59
2022/09/16 06:21:27;;;;;;;;;;;;;;;22.68;68.20;94788.25;5117513;28;1028;-59
2022/09/16 06:23:53;;;;;;;;;;;;;;;22.69;66.47;94784.47;5117639;28;1901;-59
2022/09/16 06:26:21;;;;;;;;;;;;;;;22.79;65.55;94779.19;5117384;28;983;-59
2022/09/16 06:28:47;;;;;;;;;;;;;;;23.01;64.30;94783.88;5116345;28;1092;-59
2022/09/16 06:31:24;;;;;;;;;;;;;;;23.20;63.39;94773.59;5117245;28;1040;-59
2022/09/16 06:33:51;;;;;;;;;;;;;;;23.36;62.46;94777.38;5117407;28;1024;-59
2022/09/16 06:36:18;;;;;;;;;;;;;;;23.36;63.47;94770.03;5117217;28;1051;-58
2022/09/16 06:38:45;;;;;;;;;;;;;;;23.36;63.68;94775.47;5117370;28;1018;-59
2022/09/16 06:41:12;;;;;;;;;;;;;;;23.39;63.84;94776.88;5117066;28;1037;-59
2022/09/16 06:43:38;;;;;;;;;;;;;;;23.45;64.60;94777.75;5116962;28;1929;-59
2022/09/16 06:46:06;;;;;;;;;;;;;;;23.49;63.68;94781.66;5116885;28;1231;-59
2022/09/16 06:48:35;;;;;;;;;;;;;;;23.59;61.39;94781.81;5117220;28;1007;-59
2022/09/16 06:51:05;;;;;;;;;;;;;;;23.72;61.34;94786.06;5116874;28;1102;-59
2022/09/16 06:53:32;;;;;;;;;;;;;;;23.81;61.22;94787.31;5116985;28;1153;-58
2022/09/16 06:56:03;;;;;;;;;;;;;;;24.06;60.20;94784.09;5116822;27;1048;-59
2022/09/16 06:58:32;;;;;;;;;;;;;;;24.32;60.32;94795.28;5116820;28;1036;-59
2022/09/16 07:01:03;;;;;;;;;;;;;;;24.35;60.63;94801.06;5116728;27;1044;-59
2022/09/16 07:03:29;;;;;;;;;;;;;;;24.47;59.06;94805.56;5116944;28;1043;-59
2022/09/16 07:06:00;;;;;;;;;;;;;;;24.56;59.19;94804.06;5116425;28;975;-59
2022/09/16 07:08:27;;;;;;;;;;;;;;;24.69;59.19;94795.47;5116471;28;1098;-59
2022/09/16 07:11:00;;;;;;;;;;;;;;;24.79;59.04;94793.91;5116512;28;1088;-59
2022/09/16 07:13:26;;;;;;;;;;;;;;;25.21;58.23;94804.13;5116670;28;965;-60
2022/09/16 07:15:53;;;;;;;;;;;;;;;25.70;56.13;94804.75;5116753;28;1015;-59
2022/09/16 07:18:19;;;;;;;;;;;;;;;26.38;54.68;94805.94;5116452;28;1027;-59
2022/09/16 07:20:45;;;;;;;;;;;;;;;26.95;52.10;94807.75;5116573;28;1051;-59
2022/09/16 07:23:11;;;;;;;;;;;;;;;27.50;50.35;94807.25;5116256;28;968;-59
2022/09/16 07:25:37;;;;;;;;;;;;;;;28.48;46.85;94796.81;5116519;28;1992;-59
2022/09/16 07:28:03;;;;;;;;;;;;;;;28.26;46.55;94784.25;5116198;28;1044;-59
2022/09/16 07:30:30;;;;;;;;;;;;;;;28.80;46.04;94785.41;5116221;28;1040;-59
2022/09/16 07:32:56;;;;;;;;;;;;;;;29.13;43.65;94783.78;5116051;28;1103;-59
2022/09/16 07:35:22;;;;;;;;;;;;;;;29.68;44.53;94782.78;5116228;28;1086;-59
2022/09/16 07:37:48;;;;;;;;;;;;;;;30.33;42.79;94788.69;5115977;28;1099;-59
2022/09/16 07:40:15;;;;;;;;;;;;;;;31.31;40.33;94785.41;5116279;28;1047;-59
2022/09/16 07:42:42;;;;;;;;;;;;;;;32.13;35.59;94791.47;5115926;28;1091;-60
2022/09/16 07:45:08;;;;;;;;;;;;;;;32.57;33.89;94784.50;5116137;27;1913;-59
2022/09/16 07:47:34;;;;;;;;;;;;;;;33.25;35.38;94768.84;5115718;28;1046;-60
2022/09/16 07:50:00;;;;;;;;;;;;;;;33.74;35.20;94760.72;5115981;28;1035;-60
2022/09/16 07:52:28;;;;;;;;;;;;;;;33.72;35.24;94764.97;5115557;28;1104;-60
2022/09/16 07:54:54;;;;;;;;;;;;;;;33.39;35.29;94756.88;5115737;28;1205;-60
2022/09/16 07:57:21;;;;;;;;;;;;;;;33.19;36.04;94750.72;5115732;28;996;-60
2022/09/16 07:59:47;;;;;;;;;;;;;;;33.08;36.12;94741.00;5115951;28;992;-60
2022/09/16 08:02:14;;;;;;;;;;;;;;;33.52;36.34;94749.63;5115501;28;1032;-60
2022/09/16 08:04:41;;;;;;;;;;;;;;;34.02;34.01;94757.78;5115669;28;2285;-60
2022/09/16 08:07:07;;;;;;;;;;;;;;;34.90;32.64;94762.44;5115468;28;992;-60
2022/09/16 08:09:33;;;;;;;;;;;;;;;35.63;31.94;94763.72;5115367;28;1245;-59
2022/09/16 08:12:01;;;;;;;;;;;;;;;35.78;31.87;94763.22;5115672;28;1042;-60
2022/09/16 08:14:27;;;;;;;;;;;;;;;35.60;32.07;94754.09;5115409;28;961;-60
2022/09/16 08:16:53;;;;;;;;;;;;;;;35.12;33.49;94752.34;5115544;27;1238;-61
2022/09/16 08:19:19;;;;;;;;;;;;;;;34.31;34.80;94748.09;5114249;28;1028;-61
2022/09/16 08:21:45;;;;;;;;;;;;;;;32.69;37.30;94734.16;5115147;28;1040;-62
2022/09/16 08:24:12;;;;;;;;;;;;;;;31.66;39.20;94735.38;5115246;28;1992;-61
2022/09/16 08:26:39;;;;;;;;;;;;;;;31.54;39.19;94744.16;5115320;28;1023;-62
2022/09/16 08:29:06;;;;;;;;;;;;;;;31.65;40.44;94739.28;5114911;28;1052;-62
2022/09/16 08:31:32;;;;;;;;;;;;;;;31.06;40.14;94744.41;5115004;28;1083;-62
2022/09/16 08:33:58;;;;;;;;;;;;;;;30.54;42.37;94728.59;5114810;28;1091;-62
2022/09/16 08:36:24;;;;;;;;;;;;;;;29.72;42.73;94724.03;5114834;28;983;-61
2022/09/16 08:38:53;;;;;;;;;;;;;;;29.11;44.31;94719.13;5115038;28;1038;-61
2022/09/16 08:41:38;;;;;;;;;;;;;;;28.47;46.59;94709.94;5113821;28;996;-61
2022/09/16 08:44:23;;;;;;;;;;;;;;;28.01;47.79;94713.75;5114572;27;1984;-61
2022/09/16 08:46:51;;;;;;;;;;;;;;;27.83;48.18;94704.16;5115340;28;1109;-61
2022/09/16 08:49:27;;;;;;;;;;;;;;;27.96;48.27;94714.56;5114776;28;1007;-61
2022/09/16 08:51:53;;;;;;;;;;;;;;;28.03;47.09;94720.59;5114958;28;1031;-61
2022/09/16 08:54:29;;;;;;;;;;;;;;;28.08;45.96;94706.03;5114324;28;1148;-61
2022/09/16 08:56:58;;;;;;;;;;;;;;;28.14;46.36;94710.38;5114746;28;1044;-61
2022/09/16 08:59:26;;;;;;;;;;;;;;;28.20;46.44;94703.75;5114369;28;1095;-62
2022/09/16 09:02:09;;;;;;;;;;;;;;;28.17;45.00;94707.09;5114776;28;1080;-61
2022/09/16 09:04:35;;;;;;;;;;;;;;;28.01;45.99;94708.25;5114401;28;1909;-62
2022/09/16 09:07:01;;;;;;;;;;;;;;;27.89;45.45;94705.00;5114556;28;996;-61
2022/09/16 09:09:44;;;;;;;;;;;;;;;27.80;45.03;94708.31;5114039;28;1262;-61
2022/09/16 09:12:19;;;;;;;;;;;;;;;27.67;48.34;94703.41;5114284;28;1054;-61
2022/09/16 09:14:57;;;;;;;;;;;;;;;27.49;47.11;94701.25;5114364;28;1067;-61
2022/09/16 09:17:23;;;;;;;;;;;;;;;27.26;47.88;94696.13;5114347;28;988;-61
2022/09/16 09:20:08;;;;;;;;;;;;;;;27.20;48.01;94694.41;5114128;28;959;-61
2022/09/16 09:22:47;;;;;;;;;;;;;;;27.11;49.01;94690.63;5114039;28;956;-61
2022/09/16 09:25:13;;;;;;;;;;;;;;;27.07;49.96;94697.72;5114164;28;2017;-61
2022/09/16 09:27:45;;;;;;;;;;;;;;;27.14;48.83;94698.28;5114101;28;1001;-61
2022/09/16 09:30:22;;;;;;;;;;;;;;;27.19;49.73;94698.28;5113953;28;1118;-61
2022/09/16 09:32:54;;;;;;;;;;;;;;;27.14;48.57;94697.47;5114101;28;1098;-61
2022/09/16 09:35:23;;;;;;;;;;;;;;;27.05;48.66;94714.50;5114117;28;999;-61
2022/09/16 09:37:52;;;;;;;;;;;;;;;27.01;48.95;94712.56;5114277;28;990;-61
2022/09/16 09:40:17;;;;;;;;;;;;;;;26.93;50.48;94722.16;5113783;28;1024;-61
2022/09/16 09:42:47;;;;;;;;;;;;;;;26.91;51.02;94729.84;5114094;28;1186;-61
2022/09/16 09:45:25;;;;;;;;;;;;;;;26.90;51.01;94744.69;5113740;28;1910;-61
2022/09/16 09:47:58;;;;;;;;;;;;;;;26.88;51.29;94761.41;5114247;28;1043;-61
2022/09/16 09:50:39;;;;;;;;;;;;;;;26.87;50.17;94786.34;5113874;28;1030;-61
2022/09/16 09:53:12;;;;;;;;;;;;;;;27.08;50.34;94801.72;5113894;28;1132;-61
2022/09/16 09:55:39;;;;;;;;;;;;;;;27.20;50.14;94806.94;5113672;28;1157;-61
2022/09/16 09:58:42;;;;;;;;;;;;;;;27.12;50.22;94837.66;5104689;28;3050;-61
2022/09/16 10:01:10;;;;;;;;;;;;;;;26.88;50.93;94840.94;5030499;28;2807;-61
2022/09/16 10:03:37;;;;;;;;;;;;;;;26.75;51.06;94843.34;5085421;28;2872;-61
2022/09/16 10:06:03;;;;;;;;;;;;;;;26.59;51.23;94848.78;5093139;28;1024;-61
2022/09/16 10:08:35;;;;;;;;;;;;;;;26.49;51.10;94855.03;5093181;28;1083;-61
2022/09/16 10:11:02;;;;;;;;;;;;;;;26.38;51.07;94871.72;5092902;28;1239;-61
2022/09/16 10:13:29;;;;;;;;;;;;;;;26.21;48.50;94891.91;5093088;28;1040;-61
2022/09/16 10:16:09;;;;;;;;;;;;;;;26.02;48.72;94902.47;5092986;28;2852;-61
2022/09/16 10:18:35;;;;;;;;;;;;;;;25.89;48.56;94917.41;5093241;28;1035;-60
2022/09/16 10:21:06;;;;;;;;;;;;;;;25.77;48.75;94910.50;5092956;28;1071;-60
2022/09/16 10:23:33;;;;;;;;;;;;;;;25.68;49.11;94916.44;5093260;28;1014;-61
2022/09/16 10:26:07;;;;;;;;;;;;;;;25.56;49.59;94917.72;5092897;28;1910;-61
2022/09/16 10:28:33;;;;;;;;;;;;;;;25.39;49.35;94921.41;5093050;28;1040;-60
2022/09/16 10:31:00;;;;;;;;;;;;;;;25.30;50.23;94917.50;5092980;28;1075;-60
2022/09/16 10:33:26;;;;;;;;;;;;;;;25.26;51.11;94919.09;5092932;28;1020;-60
2022/09/16 10:35:57;;;;;;;;;;;;;;;25.24;50.99;94926.75;5092784;28;1094;-60
2022/09/16 10:38:25;;;;;;;;;;;;;;;25.16;51.29;94918.97;5091711;28;1036;-60
2022/09/16 10:40:52;;;;;;;;;;;;;;;25.06;52.02;94903.25;5092749;28;1067;-61
2022/09/16 10:43:18;;;;;;;;;;;;;;;25.07;52.22;94903.00;5096794;28;948;-60
2022/09/16 10:45:46;;;;;;;;;;;;;;;25.13;51.65;94904.72;5096523;28;1985;-59
2022/09/16 10:48:14;;;;;;;;;;;;;;;25.29;51.36;94899.44;5096781;28;943;-59
2022/09/16 10:50:56;;;;;;;;;;;;;;;25.32;51.78;94877.00;5096570;28;1099;-59
2022/09/16 10:53:26;;;;;;;;;;;;;;;25.30;51.87;94860.84;5096990;28;2923;-59
2022/09/16 10:56:11;;;;;;;;;;;;;;;25.25;51.46;94851.78;5116903;28;1051;-58
2022/09/16 10:58:37;;;;;;;;;;;;;;;25.21;51.85;94839.69;5116837;28;1040;-59
2022/09/16 11:01:12;;;;;;;;;;;;;;;25.37;52.19;94838.75;5116781;28;912;-58
2022/09/16 11:03:57;;;;;;;;;;;;;;;25.65;51.70;94807.47;5116775;28;1113;-59
2022/09/16 11:06:35;;;;;;;;;;;;;;;25.84;52.34;94802.38;5116508;28;1090;-59
2022/09/16 11:09:01;;;;;;;;;;;;;;;25.95;51.88;94791.50;5116574;28;1254;-61
2022/09/16 11:11:48;;;;;;;;;;;;;;;26.12;51.47;94781.16;5116662;28;980;-59
2022/09/16 11:14:20;;;;;;;;;;;;;;;26.17;51.80;94775.72;5116469;28;1416;-58
2022/09/16 11:16:46;;;;;;;;;;;;;;;26.24;52.00;94776.31;5116580;28;1015;-59
2022/09/16 11:19:17;;;;;;;;;;;;;;;26.20;51.37;94766.13;5116475;28;1040;-59
2022/09/16 11:21:43;;;;;;;;;;;;;;;26.17;51.56;94763.94;5116253;28;1052;-58
2022/09/16 11:24:15;;;;;;;;;;;;;;;26.20;52.51;94760.66;5116563;28;1906;-59
2022/09/16 11:26:50;;;;;;;;;;;;;;;26.25;51.41;94772.44;5116184;28;1068;-59
2022/09/16 11:29:16;;;;;;;;;;;;;;;26.26;51.89;94760.41;5115990;28;1028;-59
2022/09/16 11:31:45;;;;;;;;;;;;;;;26.29;52.23;94768.09;5116202;28;895;-59
2022/09/16 11:34:31;;;;;;;;;;;;;;;26.42;52.58;94771.41;5116150;28;1107;-59
2022/09/16 11:37:03;;;;;;;;;;;;;;;26.59;51.03;94769.28;5116096;28;1044;-58
2022/09/16 11:39:48;;;;;;;;;;;;;;;26.67;51.08;94763.28;5116185;28;956;-58
2022/09/16 11:42:17;;;;;;;;;;;;;;;26.67;52.15;94748.75;5115946;28;1004;-58
2022/09/16 11:44:46;;;;;;;;;;;;;;;26.60;52.20;94745.47;5115930;28;1902;-58
2022/09/16 11:47:15;;;;;;;;;;;;;;;26.56;52.17;94736.94;5116047;28;1055;-59
2022/09/16 11:49:41;;;;;;;;;;;;;;;26.59;51.56;94735.53;5116047;28;920;-59
2022/09/16 11:52:26;;;;;;;;;;;;;;;26.65;51.92;94735.31;5115433;28;2608;-58
2022/09/16 11:54:52;;;;;;;;;;;;;;;26.67;51.32;94735.88;5115178;28;1208;-59
2022/09/16 11:57:23;;;;;;;;;;;;;;;26.60;51.22;94751.75;5115525;28;1560;-59
2022/09/16 12:00:09;;;;;;;;;;;;;;;26.58;52.04;94745.69;5115948;28;1214;-59
2022/09/16 12:02:55;;;;;;;;;;;;;;;26.56;52.65;94736.06;5115431;28;1048;-59
2022/09/16 12:05:21;;;;;;;;;;;;;;;26.59;52.71;94739.13;5115608;28;1992;-59
2022/09/16 12:07:52;;;;;;;;;;;;;;;26.63;53.16;94736.69;5115384;28;1042;-59
2022/09/16 12:13:43;;;;;;;;;;;;;;;26.71;52.01;94727.09;4496947;28;1677;-59
2022/09/16 12:16:28;;;;;;;;;;;;;;;26.71;50.66;94716.13;5115013;28;1474;-59
2022/09/16 12:18:57;;;;;;;;;;;;;;;26.70;51.52;94730.94;5115567;28;987;-59
2022/09/16 12:21:42;;;;;;;;;;;;;;;26.62;50.68;94735.88;5115147;28;1036;-59
2022/09/16 12:24:12;;;;;;;;;;;;;;;26.55;50.91;94748.16;5115132;28;1901;-59
2022/09/16 12:26:45;;;;;;;;;;;;;;;26.42;51.88;94738.53;5114907;28;1052;-59
2022/09/16 12:29:11;;;;;;;;;;;;;;;26.34;51.46;94739.06;5115373;28;1028;-59
2022/09/16 12:31:57;;;;;;;;;;;;;;;26.21;51.53;94749.44;5114993;28;1007;-59
2022/09/16 12:34:26;;;;;;;;;;;;;;;26.08;53.14;94760.88;5115140;28;1043;-59
2022/09/16 12:37:13;;;;;;;;;;;;;;;25.97;53.30;94776.47;5114755;28;1067;-59
2022/09/16 12:39:39;;;;;;;;;;;;;;;25.83;53.13;94780.75;5114830;28;1424;-59
2022/09/16 12:42:05;;;;;;;;;;;;;;;25.74;52.59;94793.28;5114679;28;1048;-59
2022/09/16 12:44:34;;;;;;;;;;;;;;;25.65;53.68;94792.94;5114727;28;1992;-59
2022/09/16 12:47:06;;;;;;;;;;;;;;;25.59;55.47;94788.53;5113542;28;952;-59
2022/09/16 12:49:36;;;;;;;;;;;;;;;25.47;57.64;94778.63;5114772;27;1010;-59
2022/09/16 12:52:05;;;;;;;;;;;;;;;25.32;58.61;94793.00;5114368;28;2526;-58
2022/09/16 12:54:49;;;;;;;;;;;;;;;25.23;58.28;94815.66;5114407;28;1161;-58
2022/09/16 12:57:25;;;;;;;;;;;;;;;25.20;58.78;94806.03;5114179;28;969;-58
2022/09/16 13:00:09;;;;;;;;;;;;;;;25.07;63.47;94817.41;5114556;28;1103;-59
2022/09/16 13:02:39;;;;;;;;;;;;;;;24.94;64.42;94818.66;5114488;28;1036;-59
2022/09/16 13:05:23;;;;;;;;;;;;;;;24.96;63.90;94818.41;5114183;28;1913;-59
2022/09/16 13:07:51;;;;;;;;;;;;;;;24.91;65.79;94819.19;5113184;28;984;-59
2022/09/16 13:10:30;;;;;;;;;;;;;;;24.89;65.07;94821.34;5114241;28;1072;-58
2022/09/16 13:12:58;;;;;;;;;;;;;;;24.84;64.19;94804.91;5113735;28;1144;-59
2022/09/16 13:15:26;;;;;;;;;;;;;;;24.81;63.83;94797.22;5114527;28;1010;-59